sensor_id;sensor_type;location;lat;lon;timestamp;pressure;altitude;pressure_sealevel;temperature;humidity
53023;BME280;38913;44.338;11.206;2023-04-06T00:01:19;100163.88;;;-0.98;nan
53023;BME280;38913;44.338;11.206;2023-04-06T00:03:45;100124.00;;;-0.54;nan
53023;BME280;38913;44.338;11.206;2023-04-06T00:06:10;100100.78;;;-0.75;nan
53023;BME280;38913;44.338;11.206;2023-04-06T00:08:36;100127.38;;;-0.63;nan
53023;BME280;38913;44.338;11.206;2023-04-06T00:11:01;100131.50;;;-0.41;nan
53023;BME280;38913;44.338;11.206;2023-04-06T00:13:27;100180.88;;;-0.13;nan
53023;BME280;38913;44.338;11.206;2023-04-06T00:15:56;100234.25;;;-0.32;nan
53023;BME280;38913;44.338;11.206;2023-04-06T00:18:22;100222.50;;;-0.46;nan
53023;BME280;38913;44.338;11.206;2023-04-06T00:20:48;100266.13;;;0.39;nan
53023;BME280;38913;44.338;11.206;2023-04-06T00:23:14;100280.81;;;-0.10;nan
53023;BME280;38913;44.338;11.206;2023-04-06T00:25:40;100265.59;;;0.36;nan
53023;BME280;38913;44.338;11.206;2023-04-06T00:28:09;100259.38;;;-0.22;nan
53023;BME280;38913;44.338;11.206;2023-04-06T00:30:37;100229.28;;;-0.86;nan
53023;BME280;38913;44.338;11.206;2023-04-06T00:36:31;100259.41;;;-0.12;nan
53023;BME280;38913;44.338;11.206;2023-04-06T00:39:04;100253.09;;;-0.30;nan
53023;BME280;38913;44.338;11.206;2023-04-06T00:41:31;100264.16;;;-0.18;nan
53023;BME280;38913;44.338;11.206;2023-04-06T00:43:57;100261.50;;;-0.37;nan
53023;BME280;38913;44.338;11.206;2023-04-06T00:46:23;100263.88;;;-0.15;nan
53023;BME280;38913;44.338;11.206;2023-04-06T00:51:53;100285.69;;;-0.07;nan
53023;BME280;38913;44.338;11.206;2023-04-06T00:54:18;100290.94;;;-0.38;nan
53023;BME280;38913;44.338;11.206;2023-04-06T00:56:44;100262.97;;;-0.45;nan
53023;BME280;38913;44.338;11.206;2023-04-06T00:59:11;100280.88;;;0.29;nan
53023;BME280;38913;44.338;11.206;2023-04-06T01:01:37;100290.09;;;-0.39;nan
53023;BME280;38913;44.338;11.206;2023-04-06T01:04:02;100285.41;;;-0.86;nan
53023;BME280;38913;44.338;11.206;2023-04-06T01:06:28;100260.38;;;-0.76;nan
53023;BME280;38913;44.338;11.206;2023-04-06T01:08:54;100194.69;;;-0.94;nan
53023;BME280;38913;44.338;11.206;2023-04-06T01:11:19;100288.66;;;-0.22;nan
53023;BME280;38913;44.338;11.206;2023-04-06T01:13:45;100263.47;;;-0.20;nan
53023;BME280;38913;44.338;11.206;2023-04-06T01:16:11;100263.81;;;-0.44;nan
53023;BME280;38913;44.338;11.206;2023-04-06T01:18:41;100263.69;;;-0.74;nan
53023;BME280;38913;44.338;11.206;2023-04-06T01:21:15;100229.91;;;-1.25;nan
53023;BME280;38913;44.338;11.206;2023-04-06T01:23:45;100174.03;;;-0.85;nan
53023;BME280;38913;44.338;11.206;2023-04-06T01:26:12;100197.16;;;-0.83;nan
53023;BME280;38913;44.338;11.206;2023-04-06T01:32:12;100254.56;;;-0.37;nan
53023;BME280;38913;44.338;11.206;2023-04-06T01:34:37;100275.59;;;-0.61;nan
53023;BME280;38913;44.338;11.206;2023-04-06T01:37:03;100264.28;;;-0.60;nan
53023;BME280;38913;44.338;11.206;2023-04-06T01:39:29;100260.28;;;-0.96;nan
53023;BME280;38913;44.338;11.206;2023-04-06T01:41:54;100294.34;;;-0.38;nan
53023;BME280;38913;44.338;11.206;2023-04-06T01:44:20;100281.97;;;-0.65;nan
53023;BME280;38913;44.338;11.206;2023-04-06T01:46:45;100253.50;;;-0.65;nan
53023;BME280;38913;44.338;11.206;2023-04-06T01:49:11;100255.84;;;-0.21;nan
53023;BME280;38913;44.338;11.206;2023-04-06T01:51:37;100245.66;;;-0.54;nan
53023;BME280;38913;44.338;11.206;2023-04-06T01:54:03;100248.38;;;-0.56;nan
53023;BME280;38913;44.338;11.206;2023-04-06T01:56:28;100258.56;;;-0.64;nan
53023;BME280;38913;44.338;11.206;2023-04-06T01:58:53;100240.38;;;-1.05;nan
53023;BME280;38913;44.338;11.206;2023-04-06T02:01:19;100239.06;;;-0.89;nan
53023;BME280;38913;44.338;11.206;2023-04-06T02:03:45;100242.50;;;-1.10;nan
53023;BME280;38913;44.338;11.206;2023-04-06T02:06:11;100218.09;;;-0.96;nan
53023;BME280;38913;44.338;11.206;2023-04-06T02:08:36;100219.34;;;-0.59;nan
53023;BME280;38913;44.338;11.206;2023-04-06T02:11:01;100258.28;;;-0.20;nan
53023;BME280;38913;44.338;11.206;2023-04-06T02:13:27;100275.00;;;-0.65;nan
53023;BME280;38913;44.338;11.206;2023-04-06T02:15:52;100241.09;;;-0.93;nan
53023;BME280;38913;44.338;11.206;2023-04-06T02:18:18;100228.94;;;-0.81;nan
53023;BME280;38913;44.338;11.206;2023-04-06T02:20:43;100242.19;;;-0.96;nan
53023;BME280;38913;44.338;11.206;2023-04-06T02:23:09;100229.50;;;-0.99;nan
53023;BME280;38913;44.338;11.206;2023-04-06T02:25:35;100272.75;;;-0.58;nan
53023;BME280;38913;44.338;11.206;2023-04-06T02:28:01;100279.72;;;-0.49;nan
53023;BME280;38913;44.338;11.206;2023-04-06T02:30:26;100280.16;;;-0.75;nan
53023;BME280;38913;44.338;11.206;2023-04-06T02:32:52;100270.13;;;-0.89;nan
53023;BME280;38913;44.338;11.206;2023-04-06T02:35:17;100271.53;;;-0.54;nan
53023;BME280;38913;44.338;11.206;2023-04-06T02:37:43;100273.00;;;-0.61;nan
53023;BME280;38913;44.338;11.206;2023-04-06T02:40:09;100231.03;;;-0.55;nan
53023;BME280;38913;44.338;11.206;2023-04-06T02:42:35;100234.91;;;-1.12;nan
53023;BME280;38913;44.338;11.206;2023-04-06T02:45:00;100204.03;;;-1.03;nan
53023;BME280;38913;44.338;11.206;2023-04-06T02:47:25;100205.72;;;-0.92;nan
53023;BME280;38913;44.338;11.206;2023-04-06T02:49:51;100227.25;;;-0.82;nan
53023;BME280;38913;44.338;11.206;2023-04-06T02:52:16;100243.66;;;-0.40;nan
53023;BME280;38913;44.338;11.206;2023-04-06T02:54:43;100261.16;;;-0.64;nan
53023;BME280;38913;44.338;11.206;2023-04-06T02:57:08;100264.63;;;-0.44;nan
53023;BME280;38913;44.338;11.206;2023-04-06T02:59:34;100253.09;;;-0.61;nan
53023;BME280;38913;44.338;11.206;2023-04-06T03:01:59;100270.31;;;-0.50;nan
53023;BME280;38913;44.338;11.206;2023-04-06T03:04:25;100234.94;;;-1.44;nan
53023;BME280;38913;44.338;11.206;2023-04-06T03:06:50;100237.25;;;-0.77;nan
53023;BME280;38913;44.338;11.206;2023-04-06T03:09:16;100249.44;;;-0.89;nan
53023;BME280;38913;44.338;11.206;2023-04-06T03:11:41;100229.66;;;-1.21;nan
53023;BME280;38913;44.338;11.206;2023-04-06T03:14:07;100238.72;;;-0.85;nan
53023;BME280;38913;44.338;11.206;2023-04-06T03:16:32;100248.50;;;-1.10;nan
53023;BME280;38913;44.338;11.206;2023-04-06T03:18:57;100249.28;;;-1.19;nan
53023;BME280;38913;44.338;11.206;2023-04-06T03:21:23;100245.19;;;-1.21;nan
53023;BME280;38913;44.338;11.206;2023-04-06T03:23:48;100255.53;;;-1.21;nan
53023;BME280;38913;44.338;11.206;2023-04-06T03:26:17;100250.25;;;-1.10;nan
53023;BME280;38913;44.338;11.206;2023-04-06T03:28:43;100272.81;;;-1.01;nan
53023;BME280;38913;44.338;11.206;2023-04-06T03:34:43;100249.34;;;-1.09;nan
53023;BME280;38913;44.338;11.206;2023-04-06T03:37:08;100228.38;;;-1.27;nan
53023;BME280;38913;44.338;11.206;2023-04-06T03:39:34;100217.00;;;-1.46;nan
53023;BME280;38913;44.338;11.206;2023-04-06T03:42:00;100181.59;;;-1.45;nan
53023;BME280;38913;44.338;11.206;2023-04-06T03:44:25;100169.19;;;-1.30;nan
53023;BME280;38913;44.338;11.206;2023-04-06T03:46:51;100159.66;;;-1.72;nan
53023;BME280;38913;44.338;11.206;2023-04-06T03:49:16;100161.22;;;-1.81;nan
53023;BME280;38913;44.338;11.206;2023-04-06T03:51:42;100169.69;;;-2.12;nan
53023;BME280;38913;44.338;11.206;2023-04-06T03:54:07;100231.16;;;-1.40;nan
53023;BME280;38913;44.338;11.206;2023-04-06T03:56:32;100262.75;;;-1.37;nan
53023;BME280;38913;44.338;11.206;2023-04-06T03:58:58;100268.31;;;-1.20;nan
53023;BME280;38913;44.338;11.206;2023-04-06T04:01:23;100251.34;;;-1.34;nan
53023;BME280;38913;44.338;11.206;2023-04-06T04:03:49;100252.53;;;-1.59;nan
53023;BME280;38913;44.338;11.206;2023-04-06T04:06:14;100247.50;;;-1.72;nan
53023;BME280;38913;44.338;11.206;2023-04-06T04:08:40;100245.22;;;-1.87;nan
53023;BME280;38913;44.338;11.206;2023-04-06T04:11:11;100249.44;;;-1.86;nan
53023;BME280;38913;44.338;11.206;2023-04-06T04:14:13;100194.13;;;-1.83;nan
53023;BME280;38913;44.338;11.206;2023-04-06T04:16:39;100204.31;;;-1.28;nan
53023;BME280;38913;44.338;11.206;2023-04-06T04:19:06;100260.09;;;-0.83;nan
53023;BME280;38913;44.338;11.206;2023-04-06T04:21:31;100305.00;;;-1.47;nan
53023;BME280;38913;44.338;11.206;2023-04-06T04:23:57;100279.91;;;-1.68;nan
53023;BME280;38913;44.338;11.206;2023-04-06T04:26:22;100299.47;;;-1.21;nan
53023;BME280;38913;44.338;11.206;2023-04-06T04:28:48;100305.03;;;-1.59;nan
53023;BME280;38913;44.338;11.206;2023-04-06T04:31:13;100284.44;;;-1.82;nan
53023;BME280;38913;44.338;11.206;2023-04-06T04:33:39;100236.22;;;-2.15;nan
53023;BME280;38913;44.338;11.206;2023-04-06T04:36:05;100143.38;;;-2.06;nan
53023;BME280;38913;44.338;11.206;2023-04-06T04:38:30;100160.47;;;-1.93;nan
53023;BME280;38913;44.338;11.206;2023-04-06T04:40:55;100230.91;;;-1.58;nan
53023;BME280;38913;44.338;11.206;2023-04-06T04:43:21;100288.66;;;-1.48;nan
53023;BME280;38913;44.338;11.206;2023-04-06T04:45:46;100305.06;;;-1.16;nan
53023;BME280;38913;44.338;11.206;2023-04-06T04:48:12;100327.63;;;-1.07;nan
53023;BME280;38913;44.338;11.206;2023-04-06T04:50:37;100330.66;;;-1.02;nan
53023;BME280;38913;44.338;11.206;2023-04-06T04:53:03;100318.91;;;-1.06;nan
53023;BME280;38913;44.338;11.206;2023-04-06T04:55:31;100307.09;;;-1.41;nan
53023;BME280;38913;44.338;11.206;2023-04-06T04:57:56;100304.41;;;-0.97;nan
53023;BME280;38913;44.338;11.206;2023-04-06T05:00:22;100321.47;;;-0.63;nan
53023;BME280;38913;44.338;11.206;2023-04-06T05:02:47;100327.03;;;-0.68;nan
53023;BME280;38913;44.338;11.206;2023-04-06T05:05:13;100324.03;;;-0.94;nan
53023;BME280;38913;44.338;11.206;2023-04-06T05:07:38;100312.72;;;-1.36;nan
53023;BME280;38913;44.338;11.206;2023-04-06T05:10:05;100308.59;;;-1.17;nan
53023;BME280;38913;44.338;11.206;2023-04-06T05:12:30;100308.13;;;-1.11;nan
53023;BME280;38913;44.338;11.206;2023-04-06T05:14:56;100314.16;;;-0.79;nan
53023;BME280;38913;44.338;11.206;2023-04-06T05:17:22;100327.44;;;-0.73;nan
53023;BME280;38913;44.338;11.206;2023-04-06T05:19:47;100307.84;;;-1.29;nan
53023;BME280;38913;44.338;11.206;2023-04-06T05:22:12;100320.25;;;-1.12;nan
53023;BME280;38913;44.338;11.206;2023-04-06T05:24:41;100329.00;;;-1.24;nan
53023;BME280;38913;44.338;11.206;2023-04-06T05:27:08;100330.94;;;-1.16;nan
53023;BME280;38913;44.338;11.206;2023-04-06T05:29:34;100297.47;;;-1.51;nan
53023;BME280;38913;44.338;11.206;2023-04-06T05:32:01;100278.03;;;-0.60;nan
53023;BME280;38913;44.338;11.206;2023-04-06T05:34:26;100337.25;;;0.96;nan
53023;BME280;38913;44.338;11.206;2023-04-06T05:36:52;100368.09;;;2.33;nan
53023;BME280;38913;44.338;11.206;2023-04-06T05:39:18;100374.81;;;2.53;nan
53023;BME280;38913;44.338;11.206;2023-04-06T05:41:43;100386.69;;;3.10;nan
53023;BME280;38913;44.338;11.206;2023-04-06T05:44:10;100395.59;;;4.14;nan
53023;BME280;38913;44.338;11.206;2023-04-06T05:46:36;100408.03;;;5.13;nan
53023;BME280;38913;44.338;11.206;2023-04-06T05:49:01;100409.81;;;5.12;nan
53023;BME280;38913;44.338;11.206;2023-04-06T05:51:27;100410.34;;;6.37;nan
53023;BME280;38913;44.338;11.206;2023-04-06T05:53:53;100416.03;;;6.96;nan
53023;BME280;38913;44.338;11.206;2023-04-06T05:56:18;100420.84;;;7.31;nan
53023;BME280;38913;44.338;11.206;2023-04-06T05:58:44;100434.09;;;7.83;nan
53023;BME280;38913;44.338;11.206;2023-04-06T06:01:09;100434.44;;;8.40;nan
53023;BME280;38913;44.338;11.206;2023-04-06T06:03:35;100441.16;;;6.27;nan
53023;BME280;38913;44.338;11.206;2023-04-06T06:06:02;100415.47;;;6.31;nan
53023;BME280;38913;44.338;11.206;2023-04-06T06:08:28;100423.59;;;7.83;nan
53023;BME280;38913;44.338;11.206;2023-04-06T06:10:53;100436.97;;;8.33;nan
53023;BME280;38913;44.338;11.206;2023-04-06T06:13:18;100427.84;;;9.88;nan
53023;BME280;38913;44.338;11.206;2023-04-06T06:15:44;100433.09;;;9.31;nan
53023;BME280;38913;44.338;11.206;2023-04-06T06:18:10;100434.63;;;8.53;nan
53023;BME280;38913;44.338;11.206;2023-04-06T06:20:35;100437.28;;;10.67;nan
53023;BME280;38913;44.338;11.206;2023-04-06T06:23:01;100441.38;;;8.85;nan
53023;BME280;38913;44.338;11.206;2023-04-06T06:25:26;100433.25;;;10.29;nan
53023;BME280;38913;44.338;11.206;2023-04-06T06:27:51;100439.75;;;10.26;nan
53023;BME280;38913;44.338;11.206;2023-04-06T06:30:17;100437.13;;;11.09;nan
53023;BME280;38913;44.338;11.206;2023-04-06T06:32:42;100436.28;;;11.69;nan
53023;BME280;38913;44.338;11.206;2023-04-06T06:35:08;100438.59;;;12.63;nan
53023;BME280;38913;44.338;11.206;2023-04-06T06:37:33;100448.06;;;11.73;nan
53023;BME280;38913;44.338;11.206;2023-04-06T06:39:59;100448.88;;;11.06;nan
53023;BME280;38913;44.338;11.206;2023-04-06T06:42:24;100444.78;;;10.70;nan
53023;BME280;38913;44.338;11.206;2023-04-06T06:44:51;100453.41;;;10.01;nan
53023;BME280;38913;44.338;11.206;2023-04-06T06:47:16;100439.44;;;12.12;nan
53023;BME280;38913;44.338;11.206;2023-04-06T06:49:41;100439.66;;;12.88;nan
53023;BME280;38913;44.338;11.206;2023-04-06T06:52:07;100437.00;;;14.39;nan
53023;BME280;38913;44.338;11.206;2023-04-06T06:54:32;100441.56;;;13.06;nan
53023;BME280;38913;44.338;11.206;2023-04-06T06:56:57;100449.66;;;14.37;nan
53023;BME280;38913;44.338;11.206;2023-04-06T06:59:23;100443.19;;;14.33;nan
53023;BME280;38913;44.338;11.206;2023-04-06T07:01:49;100440.41;;;14.58;nan
53023;BME280;38913;44.338;11.206;2023-04-06T07:04:15;100438.81;;;15.83;nan
53023;BME280;38913;44.338;11.206;2023-04-06T07:06:41;100451.06;;;13.65;nan
53023;BME280;38913;44.338;11.206;2023-04-06T07:09:06;100448.09;;;13.98;nan
53023;BME280;38913;44.338;11.206;2023-04-06T07:11:32;100450.28;;;14.02;nan
53023;BME280;38913;44.338;11.206;2023-04-06T07:13:57;100449.22;;;13.14;nan
53023;BME280;38913;44.338;11.206;2023-04-06T07:16:22;100451.06;;;12.88;nan
53023;BME280;38913;44.338;11.206;2023-04-06T07:18:48;100441.28;;;14.40;nan
53023;BME280;38913;44.338;11.206;2023-04-06T07:21:13;100454.31;;;13.85;nan
53023;BME280;38913;44.338;11.206;2023-04-06T07:23:39;100442.72;;;14.85;nan
53023;BME280;38913;44.338;11.206;2023-04-06T07:26:05;100448.84;;;14.98;nan
53023;BME280;38913;44.338;11.206;2023-04-06T07:28:30;100443.69;;;15.74;nan
53023;BME280;38913;44.338;11.206;2023-04-06T07:30:56;100445.03;;;16.01;nan
53023;BME280;38913;44.338;11.206;2023-04-06T07:33:21;100441.53;;;17.73;nan
53023;BME280;38913;44.338;11.206;2023-04-06T07:35:49;100441.25;;;15.73;nan
53023;BME280;38913;44.338;11.206;2023-04-06T07:38:15;100447.69;;;14.63;nan
53023;BME280;38913;44.338;11.206;2023-04-06T07:40:41;100452.84;;;13.71;nan
53023;BME280;38913;44.338;11.206;2023-04-06T07:43:06;100456.34;;;14.39;nan
53023;BME280;38913;44.338;11.206;2023-04-06T07:45:31;100436.06;;;15.42;nan
53023;BME280;38913;44.338;11.206;2023-04-06T07:47:57;100438.34;;;17.37;nan
53023;BME280;38913;44.338;11.206;2023-04-06T07:50:22;100419.19;;;19.07;nan
53023;BME280;38913;44.338;11.206;2023-04-06T07:52:48;100431.50;;;17.81;nan
53023;BME280;38913;44.338;11.206;2023-04-06T07:55:13;100422.47;;;19.73;nan
53023;BME280;38913;44.338;11.206;2023-04-06T07:57:39;100409.06;;;21.25;nan
53023;BME280;38913;44.338;11.206;2023-04-06T08:00:07;100415.38;;;22.26;nan
53023;BME280;38913;44.338;11.206;2023-04-06T08:02:34;100400.75;;;23.12;nan
53023;BME280;38913;44.338;11.206;2023-04-06T08:05:03;100388.16;;;25.47;nan
53023;BME280;38913;44.338;11.206;2023-04-06T08:07:28;100385.63;;;25.79;nan
53023;BME280;38913;44.338;11.206;2023-04-06T08:09:54;100379.66;;;26.96;nan
53023;BME280;38913;44.338;11.206;2023-04-06T08:12:19;100377.03;;;27.89;nan
53023;BME280;38913;44.338;11.206;2023-04-06T08:14:45;100378.06;;;27.44;nan
53023;BME280;38913;44.338;11.206;2023-04-06T08:17:11;100373.22;;;28.17;nan
53023;BME280;38913;44.338;11.206;2023-04-06T08:19:36;100368.16;;;28.81;nan
53023;BME280;38913;44.338;11.206;2023-04-06T08:22:02;100366.34;;;28.02;nan
53023;BME280;38913;44.338;11.206;2023-04-06T08:24:28;100359.38;;;28.75;nan
53023;BME280;38913;44.338;11.206;2023-04-06T08:26:53;100367.94;;;28.03;nan
53023;BME280;38913;44.338;11.206;2023-04-06T08:29:19;100376.41;;;27.17;nan
53023;BME280;38913;44.338;11.206;2023-04-06T08:31:45;100365.25;;;28.29;nan
53023;BME280;38913;44.338;11.206;2023-04-06T08:34:10;100359.22;;;29.19;nan
53023;BME280;38913;44.338;11.206;2023-04-06T08:36:36;100363.03;;;28.23;nan
53023;BME280;38913;44.338;11.206;2023-04-06T08:39:01;100358.72;;;28.04;nan
53023;BME280;38913;44.338;11.206;2023-04-06T08:41:27;100365.97;;;27.42;nan
53023;BME280;38913;44.338;11.206;2023-04-06T08:43:57;100343.34;;;29.81;nan
53023;BME280;38913;44.338;11.206;2023-04-06T08:46:23;100345.78;;;30.17;nan
53023;BME280;38913;44.338;11.206;2023-04-06T08:49:02;100354.28;;;29.21;nan
53023;BME280;38913;44.338;11.206;2023-04-06T08:51:29;100359.72;;;27.23;nan
53023;BME280;38913;44.338;11.206;2023-04-06T08:53:56;100364.78;;;26.30;nan
53023;BME280;38913;44.338;11.206;2023-04-06T08:56:23;100365.03;;;25.97;nan
53023;BME280;38913;44.338;11.206;2023-04-06T08:58:50;100370.88;;;24.06;nan
53023;BME280;38913;44.338;11.206;2023-04-06T09:01:20;100372.78;;;23.62;nan
53023;BME280;38913;44.338;11.206;2023-04-06T09:03:47;100380.44;;;23.01;nan
53023;BME280;38913;44.338;11.206;2023-04-06T09:06:14;100386.72;;;22.16;nan
53023;BME280;38913;44.338;11.206;2023-04-06T09:08:41;100373.81;;;21.78;nan
53023;BME280;38913;44.338;11.206;2023-04-06T09:11:07;100379.28;;;21.42;nan
53023;BME280;38913;44.338;11.206;2023-04-06T09:13:55;100372.88;;;20.03;nan
53023;BME280;38913;44.338;11.206;2023-04-06T09:16:22;100378.25;;;20.08;nan
53023;BME280;38913;44.338;11.206;2023-04-06T09:18:48;100375.03;;;20.06;nan
53023;BME280;38913;44.338;11.206;2023-04-06T09:21:17;100372.81;;;19.77;nan
53023;BME280;38913;44.338;11.206;2023-04-06T09:23:44;100369.84;;;19.20;nan
53023;BME280;38913;44.338;11.206;2023-04-06T09:26:14;100372.25;;;18.83;nan
53023;BME280;38913;44.338;11.206;2023-04-06T09:29:00;100371.63;;;18.71;nan
53023;BME280;38913;44.338;11.206;2023-04-06T09:31:28;100366.84;;;18.73;nan
53023;BME280;38913;44.338;11.206;2023-04-06T09:33:56;100375.63;;;15.85;nan
53023;BME280;38913;44.338;11.206;2023-04-06T09:36:35;100379.13;;;15.86;nan
53023;BME280;38913;44.338;11.206;2023-04-06T09:39:05;100356.22;;;16.26;nan
53023;BME280;38913;44.338;11.206;2023-04-06T09:41:32;100364.97;;;15.56;nan
53023;BME280;38913;44.338;11.206;2023-04-06T09:44:16;100367.75;;;15.38;nan
53023;BME280;38913;44.338;11.206;2023-04-06T09:46:43;100358.50;;;15.64;nan
53023;BME280;38913;44.338;11.206;2023-04-06T09:49:10;100358.91;;;15.73;nan
53023;BME280;38913;44.338;11.206;2023-04-06T09:51:52;100349.34;;;15.72;nan
53023;BME280;38913;44.338;11.206;2023-04-06T09:54:21;100350.41;;;15.47;nan
53023;BME280;38913;44.338;11.206;2023-04-06T09:57:25;100352.38;;;15.64;nan
53023;BME280;38913;44.338;11.206;2023-04-06T10:00:09;100355.97;;;14.74;nan
53023;BME280;38913;44.338;11.206;2023-04-06T10:05:55;100338.81;;;15.77;nan
53023;BME280;38913;44.338;11.206;2023-04-06T10:08:27;100345.03;;;15.42;nan
53023;BME280;38913;44.338;11.206;2023-04-06T10:10:54;100341.00;;;15.27;nan
53023;BME280;38913;44.338;11.206;2023-04-06T10:13:20;100343.06;;;15.25;nan
53023;BME280;38913;44.338;11.206;2023-04-06T10:15:46;100336.81;;;14.60;nan
53023;BME280;38913;44.338;11.206;2023-04-06T10:18:12;100332.81;;;15.17;nan
53023;BME280;38913;44.338;11.206;2023-04-06T10:20:57;100323.72;;;16.53;nan
53023;BME280;38913;44.338;11.206;2023-04-06T10:26:02;100312.06;;;17.77;nan
53023;BME280;38913;44.338;11.206;2023-04-06T10:28:33;100314.75;;;18.32;nan
53023;BME280;38913;44.338;11.206;2023-04-06T10:31:02;100305.44;;;17.53;nan
53023;BME280;38913;44.338;11.206;2023-04-06T10:33:30;100292.69;;;20.08;nan
53023;BME280;38913;44.338;11.206;2023-04-06T10:35:55;100299.63;;;19.19;nan
53023;BME280;38913;44.338;11.206;2023-04-06T10:38:21;100289.47;;;20.53;nan
53023;BME280;38913;44.338;11.206;2023-04-06T10:41:07;100289.47;;;20.53;nan
53023;BME280;38913;44.338;11.206;2023-04-06T10:43:34;100290.94;;;19.55;nan
53023;BME280;38913;44.338;11.206;2023-04-06T10:46:03;100282.19;;;19.91;nan
53023;BME280;38913;44.338;11.206;2023-04-06T10:48:43;100272.50;;;22.10;nan
53023;BME280;38913;44.338;11.206;2023-04-06T10:51:13;100273.13;;;20.85;nan
53023;BME280;38913;44.338;11.206;2023-04-06T10:53:42;100267.22;;;22.00;nan
53023;BME280;38913;44.338;11.206;2023-04-06T10:56:13;100261.00;;;22.04;nan
53023;BME280;38913;44.338;11.206;2023-04-06T10:58:47;100266.94;;;19.71;nan
53023;BME280;38913;44.338;11.206;2023-04-06T11:01:14;100273.19;;;18.75;nan
53023;BME280;38913;44.338;11.206;2023-04-06T11:03:46;100251.13;;;19.59;nan
53023;BME280;38913;44.338;11.206;2023-04-06T11:06:26;100244.22;;;20.61;nan
53023;BME280;38913;44.338;11.206;2023-04-06T11:08:53;100244.09;;;21.19;nan
53023;BME280;38913;44.338;11.206;2023-04-06T11:11:21;100248.97;;;19.40;nan
53023;BME280;38913;44.338;11.206;2023-04-06T11:13:58;100240.53;;;19.95;nan
53023;BME280;38913;44.338;11.206;2023-04-06T11:16:25;100240.16;;;19.39;nan
53023;BME280;38913;44.338;11.206;2023-04-06T11:18:56;100246.75;;;18.02;nan
53023;BME280;38913;44.338;11.206;2023-04-06T11:21:40;100254.16;;;17.01;nan
53023;BME280;38913;44.338;11.206;2023-04-06T11:24:10;100251.47;;;15.64;nan
53023;BME280;38913;44.338;11.206;2023-04-06T11:26:38;100251.69;;;14.37;nan
53023;BME280;38913;44.338;11.206;2023-04-06T11:29:04;100243.03;;;15.26;nan
53023;BME280;38913;44.338;11.206;2023-04-06T11:31:31;100233.72;;;16.10;nan
53023;BME280;38913;44.338;11.206;2023-04-06T11:33:57;100237.88;;;16.40;nan
53023;BME280;38913;44.338;11.206;2023-04-06T11:36:23;100230.25;;;16.27;nan
53023;BME280;38913;44.338;11.206;2023-04-06T11:38:48;100231.44;;;15.73;nan
53023;BME280;38913;44.338;11.206;2023-04-06T11:41:14;100229.50;;;14.74;nan
53023;BME280;38913;44.338;11.206;2023-04-06T11:43:46;100224.69;;;15.65;nan
53023;BME280;38913;44.338;11.206;2023-04-06T11:46:17;100229.72;;;15.38;nan
53023;BME280;38913;44.338;11.206;2023-04-06T11:48:44;100221.25;;;15.24;nan
53023;BME280;38913;44.338;11.206;2023-04-06T11:51:10;100217.38;;;14.90;nan
53023;BME280;38913;44.338;11.206;2023-04-06T11:53:43;100218.88;;;14.62;nan
53023;BME280;38913;44.338;11.206;2023-04-06T11:56:10;100213.28;;;15.12;nan
53023;BME280;38913;44.338;11.206;2023-04-06T11:58:35;100212.31;;;15.30;nan
53023;BME280;38913;44.338;11.206;2023-04-06T12:01:04;100205.28;;;15.36;nan
53023;BME280;38913;44.338;11.206;2023-04-06T12:03:30;100210.47;;;15.30;nan
53023;BME280;38913;44.338;11.206;2023-04-06T12:05:55;100209.78;;;14.94;nan
53023;BME280;38913;44.338;11.206;2023-04-06T12:08:21;100196.03;;;14.73;nan
53023;BME280;38913;44.338;11.206;2023-04-06T12:10:50;100198.69;;;14.97;nan
53023;BME280;38913;44.338;11.206;2023-04-06T12:13:16;100191.19;;;14.82;nan
53023;BME280;38913;44.338;11.206;2023-04-06T12:15:41;100197.22;;;14.42;nan
53023;BME280;38913;44.338;11.206;2023-04-06T12:18:07;100195.00;;;14.26;nan
53023;BME280;38913;44.338;11.206;2023-04-06T12:20:33;100193.88;;;14.46;nan
53023;BME280;38913;44.338;11.206;2023-04-06T12:22:58;100191.66;;;14.19;nan
53023;BME280;38913;44.338;11.206;2023-04-06T12:25:24;100189.47;;;14.88;nan
53023;BME280;38913;44.338;11.206;2023-04-06T12:27:50;100178.00;;;15.11;nan
53023;BME280;38913;44.338;11.206;2023-04-06T12:30:16;100170.66;;;15.30;nan
53023;BME280;38913;44.338;11.206;2023-04-06T12:32:41;100176.41;;;14.98;nan
53023;BME280;38913;44.338;11.206;2023-04-06T12:35:07;100171.28;;;14.79;nan
53023;BME280;38913;44.338;11.206;2023-04-06T12:37:34;100169.97;;;14.94;nan
53023;BME280;38913;44.338;11.206;2023-04-06T12:39:59;100166.56;;;15.11;nan
53023;BME280;38913;44.338;11.206;2023-04-06T12:42:25;100169.97;;;14.94;nan
53023;BME280;38913;44.338;11.206;2023-04-06T12:44:51;100159.94;;;14.96;nan
53023;BME280;38913;44.338;11.206;2023-04-06T12:47:17;100158.22;;;14.90;nan
53023;BME280;38913;44.338;11.206;2023-04-06T12:49:43;100155.00;;;14.88;nan
53023;BME280;38913;44.338;11.206;2023-04-06T12:52:09;100152.59;;;14.50;nan
53023;BME280;38913;44.338;11.206;2023-04-06T12:54:34;100153.28;;;14.58;nan
53023;BME280;38913;44.338;11.206;2023-04-06T12:57:00;100141.84;;;14.93;nan
53023;BME280;38913;44.338;11.206;2023-04-06T12:59:26;100143.47;;;14.70;nan
53023;BME280;38913;44.338;11.206;2023-04-06T13:01:52;100142.25;;;15.02;nan
53023;BME280;38913;44.338;11.206;2023-04-06T13:04:17;100141.91;;;15.10;nan
53023;BME280;38913;44.338;11.206;2023-04-06T13:06:43;100140.81;;;14.82;nan
53023;BME280;38913;44.338;11.206;2023-04-06T13:09:08;100143.53;;;14.99;nan
53023;BME280;38913;44.338;11.206;2023-04-06T13:11:34;100144.44;;;14.40;nan
53023;BME280;38913;44.338;11.206;2023-04-06T13:13:59;100134.50;;;14.83;nan
53023;BME280;38913;44.338;11.206;2023-04-06T13:16:25;100143.25;;;14.00;nan
53023;BME280;38913;44.338;11.206;2023-04-06T13:18:51;100135.78;;;14.33;nan